createdAt,value
2022-12-22T00:01:06.973Z,100090.84
2022-12-22T00:05:34.977Z,100077.72
2022-12-22T00:09:55.636Z,100087.81
2022-12-22T00:14:17.070Z,100077.09
2022-12-22T00:18:37.757Z,100082.28
2022-12-22T00:22:57.757Z,100093.78
2022-12-22T00:27:18.315Z,100093.41
2022-12-22T00:31:39.591Z,100098.34
2022-12-22T00:36:00.719Z,100080.56
2022-12-22T00:40:20.870Z,100081.34
2022-12-22T00:44:41.294Z,100078.19
2022-12-22T00:49:02.536Z,100073.53
2022-12-22T00:53:23.884Z,100070.66
2022-12-22T00:57:45.606Z,100056.53
2022-12-22T01:02:06.603Z,100058.03
2022-12-22T01:06:28.475Z,100046.03
2022-12-22T01:10:48.781Z,100047.28
2022-12-22T01:15:09.242Z,100051.88
2022-12-22T01:19:29.840Z,100048.44
2022-12-22T01:23:50.642Z,100056.63
2022-12-22T01:28:11.388Z,100057.91
2022-12-22T01:32:33.847Z,100050.16
2022-12-22T01:36:54.460Z,100046.53
2022-12-22T01:41:16.706Z,100048.44
2022-12-22T01:45:47.511Z,100052.13
2022-12-22T01:50:07.475Z,100044.97
2022-12-22T01:54:30.353Z,100055.78
2022-12-22T01:58:55.673Z,100046.97
2022-12-22T02:03:16.638Z,100041.78
2022-12-22T02:07:59.017Z,100042.03
2022-12-22T02:12:39.875Z,100035.31
2022-12-22T02:17:18.363Z,100033.59
2022-12-22T02:21:44.027Z,100023.25
2022-12-22T02:26:17.627Z,100033.59
2022-12-22T02:30:38.215Z,100030.63
2022-12-22T02:34:58.410Z,100041.91
2022-12-22T02:39:35.444Z,100056.63
2022-12-22T02:44:04.607Z,100069.06
2022-12-22T02:48:30.440Z,100051.22
2022-12-22T02:52:53.982Z,100063.88
2022-12-22T02:57:14.596Z,100068.59
2022-12-22T03:01:34.841Z,100079.81
2022-12-22T03:05:55.547Z,100072.22
2022-12-22T03:10:15.684Z,100056.31
2022-12-22T03:14:36.138Z,100047.81
2022-12-22T03:18:56.292Z,100037.25
2022-12-22T03:23:22.624Z,100039.84
2022-12-22T03:27:24.290Z,100047.53
2022-12-22T03:31:26.352Z,100050.22
2022-12-22T03:35:28.182Z,100044.41
2022-12-22T03:39:30.165Z,100034.09
2022-12-22T03:43:50.709Z,100032.28
2022-12-22T03:47:52.627Z,100015.63
2022-12-22T03:51:54.347Z,100023.75
2022-12-22T03:55:56.260Z,100031.88
2022-12-22T03:59:57.949Z,100050.94
2022-12-22T04:04:00.025Z,100032.94
2022-12-22T04:08:01.790Z,100033.66
2022-12-22T04:12:22.666Z,100027.13
2022-12-22T04:16:24.999Z,100032.06
2022-12-22T04:20:28.448Z,100022.22
2022-12-22T04:24:30.092Z,100021.88
2022-12-22T04:28:32.098Z,100028.88
2022-12-22T04:32:34.532Z,100018.28
2022-12-22T04:36:36.632Z,100016.59
2022-12-22T04:40:38.473Z,100006.44
2022-12-22T04:44:40.469Z,100007.38
2022-12-22T04:48:42.170Z,100004.25
2022-12-22T04:52:44.449Z,100003.31
2022-12-22T04:56:46.110Z,100006.84
2022-12-22T05:00:48.087Z,100017.59
2022-12-22T05:04:49.856Z,100009.03
2022-12-22T05:08:51.847Z,100008.41
2022-12-22T05:12:56.411Z,100000.78
2022-12-22T05:16:58.510Z,99991.13
2022-12-22T05:21:06.158Z,99985.69
2022-12-22T05:25:08.533Z,99985.31
2022-12-22T05:29:10.232Z,99977.31
2022-12-22T05:33:12.194Z,99980.47
2022-12-22T05:37:13.881Z,99983.78
2022-12-22T05:41:15.869Z,99974.66
2022-12-22T05:45:19.923Z,99968.63
2022-12-22T05:49:22.016Z,99981.19
2022-12-22T05:53:23.797Z,99972.53
2022-12-22T05:57:25.804Z,99987.31
2022-12-22T06:01:27.550Z,99986.03
2022-12-22T06:05:29.538Z,99988.09
2022-12-22T06:09:31.222Z,99988.47
2022-12-22T06:13:33.311Z,100015.25
2022-12-22T06:17:42.143Z,100009.75
2022-12-22T06:21:46.180Z,100015.91
2022-12-22T06:25:58.049Z,100014.63
2022-12-22T06:30:00.121Z,100007.78
2022-12-22T06:34:01.908Z,100009.13
2022-12-22T06:38:03.873Z,100000.75
2022-12-22T06:42:24.007Z,100002.47
2022-12-22T06:46:25.993Z,100015.56
2022-12-22T06:50:27.893Z,100022.72
2022-12-22T06:54:29.874Z,100012.25
2022-12-22T06:58:31.484Z,100021.50
2022-12-22T07:02:33.574Z,100022.69
2022-12-22T07:06:36.292Z,100013.97
2022-12-22T07:10:56.938Z,99997.03
2022-12-22T07:14:58.677Z,100006.53
2022-12-22T07:19:00.635Z,99992.13
2022-12-22T07:23:02.380Z,99992.66
2022-12-22T07:27:04.352Z,99990.88
2022-12-22T07:31:07.126Z,99991.22
2022-12-22T07:35:09.251Z,99982.91
2022-12-22T07:39:12.713Z,99978.59
2022-12-22T07:43:14.663Z,99973.41
2022-12-22T07:47:16.422Z,99979.03
2022-12-22T07:51:18.309Z,99972.56
2022-12-22T07:55:20.405Z,99975.00
2022-12-22T07:59:22.576Z,99975.06
2022-12-22T08:03:24.327Z,99979.50
2022-12-22T08:07:26.427Z,99973.00
2022-12-22T08:11:28.465Z,99974.78
2022-12-22T08:15:30.543Z,99979.09
2022-12-22T08:19:32.907Z,99978.38
2022-12-22T08:23:35.603Z,99958.13
2022-12-22T08:27:48.038Z,99946.56
2022-12-22T08:31:50.223Z,99945.03
2022-12-22T08:35:52.169Z,99931.38
2022-12-22T08:40:01.783Z,99918.88
2022-12-22T08:44:03.499Z,99924.09
2022-12-22T08:48:05.564Z,99928.09
2022-12-22T08:52:08.880Z,99924.38
2022-12-22T08:56:13.579Z,99921.75
2022-12-22T09:00:15.794Z,99923.97
2022-12-22T09:04:19.966Z,99917.81
2022-12-22T09:08:21.738Z,99920.22
2022-12-22T09:12:23.682Z,99914.38
2022-12-22T09:16:28.091Z,99905.97
2022-12-22T09:20:30.247Z,99915.59
2022-12-22T09:24:32.096Z,99918.19
2022-12-22T09:28:34.336Z,99924.22
2022-12-22T09:32:36.136Z,99936.56
2022-12-22T09:36:41.140Z,99932.09
2022-12-22T09:40:42.884Z,99928.13
2022-12-22T09:44:47.489Z,99918.47
2022-12-22T09:48:49.524Z,99895.16
2022-12-22T09:52:55.031Z,99888.13
2022-12-22T09:56:57.939Z,99874.53
2022-12-22T10:01:20.052Z,99869.97
2022-12-22T10:05:28.495Z,99853.09
2022-12-22T10:13:54.214Z,99848.59
2022-12-22T10:18:12.884Z,99849.25
2022-12-22T10:22:31.858Z,99830.19
2022-12-22T10:26:34.338Z,99836.22
2022-12-22T10:30:38.716Z,99821.53
2022-12-22T10:35:06.771Z,99813.38
2022-12-22T10:39:11.278Z,99790.53
2022-12-22T10:43:22.573Z,99800.44
2022-12-22T10:47:25.860Z,99805.16
2022-12-22T10:51:27.635Z,99790.59
2022-12-22T10:55:30.285Z,99792.56
2022-12-22T10:59:34.003Z,99787.97
2022-12-22T11:03:36.081Z,99779.13
2022-12-22T11:07:43.129Z,99766.91
2022-12-22T11:11:57.221Z,99747.09
2022-12-22T11:16:03.873Z,99751.69
2022-12-22T11:20:42.880Z,99744.25
2022-12-22T11:25:13.801Z,99741.88
2022-12-22T11:29:24.685Z,99735.09
2022-12-22T11:33:50.396Z,99733.75
2022-12-22T11:38:04.118Z,99744.25
2022-12-22T11:42:22.404Z,99732.50
2022-12-22T11:46:52.709Z,99713.38
2022-12-22T11:50:59.671Z,99707.88
2022-12-22T11:55:16.248Z,99703.25
2022-12-22T11:59:27.397Z,99709.22
2022-12-22T12:03:48.870Z,99698.03
2022-12-22T12:07:57.874Z,99694.81
2022-12-22T12:12:16.655Z,99684.47
2022-12-22T12:16:33.742Z,99676.13
2022-12-22T12:20:46.820Z,99686.91
2022-12-22T12:25:11.308Z,99681.03
2022-12-22T12:29:22.309Z,99669.44
2022-12-22T12:33:38.780Z,99666.00
2022-12-22T12:37:45.609Z,99663.19
2022-12-22T12:41:56.285Z,99664.78
2022-12-22T12:45:58.108Z,99668.56
2022-12-22T12:50:06.216Z,99672.69
2022-12-22T12:54:41.432Z,99663.47
2022-12-22T12:58:49.547Z,99651.03
2022-12-22T13:03:37.377Z,99637.00
2022-12-22T13:08:14.555Z,99642.97
2022-12-22T13:12:40.108Z,99646.91
2022-12-22T13:16:42.213Z,99655.63
2022-12-22T13:20:44.902Z,99652.00
2022-12-22T13:24:49.124Z,99645.34
2022-12-22T13:28:56.221Z,99657.69
2022-12-22T13:33:02.170Z,99651.72
2022-12-22T13:37:15.347Z,99652.56
2022-12-22T13:41:26.763Z,99644.00
2022-12-22T13:45:38.314Z,99643.63
2022-12-22T13:50:07.733Z,99636.19
2022-12-22T13:54:09.918Z,99632.72
2022-12-22T13:58:27.231Z,99627.75
2022-12-22T14:02:32.694Z,99614.88
2022-12-22T14:06:37.902Z,99618.41
2022-12-22T14:10:44.360Z,99613.81
2022-12-22T14:14:48.268Z,99611.59
2022-12-22T14:18:52.960Z,99621.03
2022-12-22T14:22:58.811Z,99599.81
2022-12-22T14:27:01.596Z,99594.59
2022-12-22T14:31:05.785Z,99585.31
2022-12-22T14:35:21.478Z,99584.59
2022-12-22T14:39:31.885Z,99578.44
2022-12-22T14:43:34.904Z,99575.91
2022-12-22T14:47:37.320Z,99576.78
2022-12-22T14:51:39.563Z,99559.84
2022-12-22T14:55:42.769Z,99543.47
2022-12-22T14:59:59.673Z,99551.50
2022-12-22T15:04:04.223Z,99563.22
2022-12-22T15:08:26.859Z,99563.63
2022-12-22T15:12:28.565Z,99564.97
2022-12-22T15:16:31.342Z,99552.97
2022-12-22T15:20:39.065Z,99556.56
2022-12-22T15:24:41.659Z,99558.34
2022-12-22T15:28:43.393Z,99555.81
2022-12-22T15:32:46.031Z,99556.50
2022-12-22T15:36:48.000Z,99557.41
2022-12-22T15:40:51.056Z,99550.59
2022-12-22T15:44:52.849Z,99546.41
2022-12-22T15:48:54.908Z,99535.63
2022-12-22T15:52:58.983Z,99542.09
2022-12-22T15:57:01.596Z,99538.75
2022-12-22T16:01:03.540Z,99536.13
2022-12-22T16:05:06.408Z,99522.75
2022-12-22T16:09:16.520Z,99521.81
2022-12-22T16:13:22.265Z,99508.59
2022-12-22T16:17:26.995Z,99505.84
2022-12-22T16:21:31.777Z,99497.72
2022-12-22T16:25:37.293Z,99497.44
2022-12-22T16:29:42.836Z,99489.31
2022-12-22T16:33:44.537Z,99488.63
2022-12-22T16:37:48.742Z,99495.91
2022-12-22T16:42:00.100Z,99481.75
2022-12-22T16:46:05.985Z,99484.13
2022-12-22T16:50:16.993Z,99491.53
2022-12-22T16:54:19.151Z,99495.13
2022-12-22T16:58:21.318Z,99488.09
2022-12-22T17:02:30.275Z,99495.38
2022-12-22T17:06:32.901Z,99485.66
2022-12-22T17:10:35.258Z,99489.16
2022-12-22T17:14:39.348Z,99486.56
2022-12-22T17:18:41.389Z,99480.28
2022-12-22T17:22:47.110Z,99485.63
2022-12-22T17:26:49.719Z,99471.41
2022-12-22T17:30:51.850Z,99474.44
2022-12-22T17:34:53.605Z,99468.44
2022-12-22T17:38:55.585Z,99475.25
2022-12-22T17:43:00.517Z,99471.66
2022-12-22T17:47:02.656Z,99474.25
2022-12-22T17:51:04.517Z,99465.00
2022-12-22T17:55:16.803Z,99459.19
2022-12-22T17:59:18.761Z,99462.69
2022-12-22T18:03:20.769Z,99459.56
2022-12-22T18:07:24.677Z,99448.91
2022-12-22T18:11:27.341Z,99452.66
2022-12-22T18:15:31.977Z,99446.19
2022-12-22T18:19:33.739Z,99431.19
2022-12-22T18:23:37.390Z,99428.28
2022-12-22T18:27:39.110Z,99427.75
2022-12-22T18:31:41.755Z,99420.72
2022-12-22T18:35:43.907Z,99426.38
2022-12-22T18:39:46.065Z,99419.63
2022-12-22T18:43:48.159Z,99425.91
2022-12-22T18:47:50.548Z,99419.34
2022-12-22T18:51:52.366Z,99419.13
2022-12-22T18:55:54.860Z,99425.59
2022-12-22T18:59:56.934Z,99416.28
2022-12-22T19:03:59.232Z,99425.91
2022-12-22T19:08:01.181Z,99430.41
2022-12-22T19:12:03.344Z,99421.13
2022-12-22T19:16:07.003Z,99416.50
2022-12-22T19:20:16.610Z,99412.94
2022-12-22T19:24:18.792Z,99410.38
2022-12-22T19:28:36.410Z,99408.13
2022-12-22T19:32:44.307Z,99390.38
2022-12-22T19:36:46.188Z,99386.91
2022-12-22T19:40:50.854Z,99390.41
2022-12-22T19:44:52.572Z,99396.78
2022-12-22T19:48:56.451Z,99381.94
2022-12-22T19:53:02.029Z,99376.28
2022-12-22T19:57:07.564Z,99369.94
2022-12-22T20:01:11.771Z,99363.78
2022-12-22T20:05:22.660Z,99368.69
2022-12-22T20:09:24.409Z,99362.75
2022-12-22T20:13:32.646Z,99362.66
2022-12-22T20:17:34.397Z,99358.03
2022-12-22T20:21:36.444Z,99364.38
2022-12-22T20:25:43.827Z,99348.34
2022-12-22T20:29:45.831Z,99356.28
2022-12-22T20:33:48.424Z,99350.16
2022-12-22T20:37:50.454Z,99347.78
2022-12-22T20:41:53.652Z,99345.03
2022-12-22T20:46:00.324Z,99348.09
2022-12-22T20:50:02.253Z,99346.66
2022-12-22T20:54:04.650Z,99355.81
2022-12-22T20:58:16.297Z,99354.88
2022-12-22T21:02:24.188Z,99356.25
2022-12-22T21:06:29.332Z,99355.06
2022-12-22T21:10:31.540Z,99356.22
2022-12-22T21:14:33.350Z,99349.66
2022-12-22T21:18:35.318Z,99355.53
2022-12-22T21:22:36.999Z,99349.97
2022-12-22T21:26:42.996Z,99348.91
2022-12-22T21:30:44.835Z,99349.59
2022-12-22T21:34:46.776Z,99341.84
2022-12-22T21:38:51.985Z,99336.88
2022-12-22T21:42:54.160Z,99333.84
2022-12-22T21:46:56.385Z,99327.22
2022-12-22T21:50:58.825Z,99325.94
2022-12-22T21:55:00.614Z,99328.63
2022-12-22T21:59:04.130Z,99337.19
2022-12-22T22:03:06.123Z,99330.03
2022-12-22T22:07:08.166Z,99332.81
2022-12-22T22:11:19.343Z,99333.41
2022-12-22T22:15:23.371Z,99328.97
2022-12-22T22:19:25.117Z,99330.75
2022-12-22T22:23:27.172Z,99331.41
2022-12-22T22:27:28.944Z,99333.31
2022-12-22T22:31:31.081Z,99343.56
2022-12-22T22:35:32.903Z,99358.94
2022-12-22T22:39:34.846Z,99359.81
2022-12-22T22:43:36.717Z,99356.81
2022-12-22T22:47:38.809Z,99349.22
2022-12-22T22:51:40.531Z,99337.03
2022-12-22T22:55:42.731Z,99338.81
2022-12-22T22:59:44.498Z,99347.78
2022-12-22T23:03:46.654Z,99341.88
2022-12-22T23:07:48.446Z,99346.00
2022-12-22T23:11:52.403Z,99343.56
2022-12-22T23:16:01.943Z,99341.09
2022-12-22T23:20:04.539Z,99337.47
2022-12-22T23:24:06.765Z,99367.03
2022-12-22T23:28:09.404Z,99357.16
2022-12-22T23:32:11.262Z,99356.50
2022-12-22T23:36:13.369Z,99364.56
2022-12-22T23:40:50.559Z,99349.06
2022-12-22T23:44:37.148Z,99342.78
2022-12-22T23:48:42.375Z,99340.34
2022-12-22T23:52:49.129Z,99337.97
2022-12-22T23:56:51.218Z,99356.22
